Time;durP1;ratioP1;P1;durP2;ratioP2;P2;SDS_P1;SDS_P2;PMS_P1;PMS_P2;Temp;Humidity;BMP_temperature;BMP_pressure;BME280_temperature;BME280_humidity;BME280_pressure;Samples;Min_cycle;Max_cycle;Signal;HPM_P1;HPM_P2
2022/03/28 00:00:00;;;;;;;19.77;10.02;;;;;;;9.01;45.82;96447.03;5106532;28;20030;-70
2022/03/28 00:02:25;;;;;;;14.25;8.50;;;;;;;9.03;45.76;96435.19;5107137;28;20043;-69
2022/03/28 00:04:51;;;;;;;14.20;8.20;;;;;;;9.07;45.69;96432.22;5106023;28;20047;-69
2022/03/28 00:07:16;;;;;;;12.23;7.82;;;;;;;9.08;45.38;96437.44;5106718;28;20044;-68
2022/03/28 00:09:42;;;;;;;13.77;7.82;;;;;;;9.01;45.35;96442.50;5106430;28;20020;-70
2022/03/28 00:12:08;;;;;;;13.95;8.02;;;;;;;8.97;45.14;96441.09;5106774;28;20031;-69
2022/03/28 00:14:33;;;;;;;13.90;7.95;;;;;;;8.97;45.32;96437.56;5106411;28;20027;-70
2022/03/28 00:16:59;;;;;;;13.73;8.45;;;;;;;8.92;45.47;96429.97;5106238;28;20027;-70
2022/03/28 00:19:24;;;;;;;14.10;9.07;;;;;;;8.87;45.76;96440.25;5106716;28;20028;-70
2022/03/28 00:21:50;;;;;;;14.80;8.32;;;;;;;8.71;46.50;96435.47;5106474;28;20016;-70
2022/03/28 00:24:15;;;;;;;13.20;8.38;;;;;;;8.62;46.75;96437.16;5106930;28;20435;-69
2022/03/28 00:26:41;;;;;;;14.13;9.15;;;;;;;8.52;47.17;96432.63;5105592;28;20027;-70
2022/03/28 00:29:06;;;;;;;13.85;8.68;;;;;;;8.42;47.01;96423.75;5107054;28;20328;-71
2022/03/28 00:31:32;;;;;;;16.73;9.13;;;;;;;8.35;47.50;96419.94;5105698;28;20034;-70
2022/03/28 00:33:57;;;;;;;11.27;7.93;;;;;;;8.38;47.45;96425.84;5106038;28;20020;-69
2022/03/28 00:36:22;;;;;;;15.07;8.85;;;;;;;8.38;47.76;96417.00;5106667;28;20424;-70
2022/03/28 00:38:51;;;;;;;14.85;8.70;;;;;;;8.39;47.94;96416.84;5106019;28;20490;-69
2022/03/28 00:41:16;;;;;;;20.33;9.63;;;;;;;8.39;48.10;96407.97;5106810;28;20471;-69
2022/03/28 00:43:56;;;;;;;15.38;8.88;;;;;;;8.35;48.30;96415.44;5105143;28;20469;-69
2022/03/28 00:46:22;;;;;;;13.63;8.80;;;;;;;8.28;48.33;96411.63;5106447;28;20030;-70
2022/03/28 00:48:48;;;;;;;17.02;9.85;;;;;;;8.28;48.23;96415.16;5105245;28;20600;-70
2022/03/28 00:51:13;;;;;;;16.00;9.73;;;;;;;8.21;48.04;96422.03;5106092;28;20028;-70
2022/03/28 00:53:39;;;;;;;13.70;8.30;;;;;;;8.17;47.68;96423.28;5106096;28;20108;-70
2022/03/28 00:56:05;;;;;;;17.60;9.15;;;;;;;8.10;47.24;96408.78;5105474;28;20030;-70
2022/03/28 00:58:30;;;;;;;16.17;8.55;;;;;;;8.05;47.09;96411.88;5106629;28;20051;-70
2022/03/28 01:00:56;;;;;;;12.85;9.00;;;;;;;7.98;47.36;96410.72;5086917;28;20027;-70
2022/03/28 01:03:21;;;;;;;13.88;10.13;;;;;;;7.85;46.90;96416.31;5106210;28;20030;-70
2022/03/28 01:05:46;;;;;;;15.00;10.13;;;;;;;7.76;47.39;96420.63;5104892;28;20394;-70
2022/03/28 01:08:13;;;;;;;13.45;8.88;;;;;;;7.78;47.30;96416.88;5106064;28;20053;-70
2022/03/28 01:10:39;;;;;;;14.40;8.50;;;;;;;7.76;47.48;96413.47;5087068;28;20031;-70
2022/03/28 01:13:04;;;;;;;15.75;8.25;;;;;;;7.83;47.26;96413.78;5104154;28;20035;-69
2022/03/28 01:15:30;;;;;;;14.63;8.68;;;;;;;7.77;47.57;96423.16;5104674;28;20118;-70
2022/03/28 01:18:08;;;;;;;15.15;8.50;;;;;;;7.73;47.82;96416.41;5104702;28;20517;-69
2022/03/28 01:20:36;;;;;;;12.23;8.00;;;;;;;7.72;48.17;96408.53;5106131;28;20020;-69
2022/03/28 01:23:01;;;;;;;15.48;8.98;;;;;;;7.71;48.32;96401.50;5103810;28;20402;-70
2022/03/28 01:25:28;;;;;;;15.40;9.10;;;;;;;7.71;48.03;96407.69;5106124;28;20028;-70
2022/03/28 01:27:54;;;;;;;14.27;8.65;;;;;;;7.70;48.11;96403.34;5105132;28;20023;-71
2022/03/28 01:30:20;;;;;;;15.05;9.20;;;;;;;7.70;48.10;96408.69;5105106;28;20390;-70
2022/03/28 01:32:47;;;;;;;18.38;8.95;;;;;;;7.61;48.11;96409.50;5105525;28;20026;-70
2022/03/28 01:35:12;;;;;;;15.02;9.15;;;;;;;7.49;48.39;96404.25;5105225;28;20027;-70
2022/03/28 01:37:38;;;;;;;16.83;9.95;;;;;;;7.37;48.20;96402.59;5106143;28;20193;-70
2022/03/28 01:40:04;;;;;;;13.18;9.60;;;;;;;7.30;49.05;96407.66;5104421;28;20024;-70
2022/03/28 01:42:30;;;;;;;14.63;9.60;;;;;;;7.19;48.59;96411.22;5105665;28;20028;-70
2022/03/28 01:44:57;;;;;;;16.60;9.55;;;;;;;7.11;48.97;96411.88;5104573;28;20410;-70
2022/03/28 01:47:26;;;;;;;17.52;9.73;;;;;;;7.06;48.97;96408.78;5103924;28;20034;-70
2022/03/28 01:49:52;;;;;;;14.98;9.20;;;;;;;7.07;49.01;96405.13;5104092;28;20089;-70
2022/03/28 01:52:18;;;;;;;13.50;9.73;;;;;;;7.02;49.45;96404.69;5104798;28;20498;-70
2022/03/28 01:54:44;;;;;;;19.70;11.07;;;;;;;6.98;48.48;96406.75;5105796;28;20050;-70
2022/03/28 01:57:09;;;;;;;16.63;9.68;;;;;;;6.88;48.91;96409.34;5102674;28;20079;-70
2022/03/28 01:59:35;;;;;;;17.80;9.75;;;;;;;6.78;49.71;96403.13;5107175;28;20023;-70
2022/03/28 02:02:00;;;;;;;14.23;9.10;;;;;;;6.73;49.78;96400.84;5108451;28;20024;-70
2022/03/28 02:04:26;;;;;;;18.73;10.30;;;;;;;6.70;49.94;96403.75;5109601;28;20036;-70
2022/03/28 02:06:51;;;;;;;17.00;10.38;;;;;;;6.65;49.82;96400.63;5108506;28;20047;-70
2022/03/28 02:09:16;;;;;;;20.98;10.05;;;;;;;6.59;50.16;96398.47;5108932;28;20073;-70
2022/03/28 02:11:42;;;;;;;18.13;9.88;;;;;;;6.58;49.77;96408.28;5109590;28;20136;-69
2022/03/28 02:14:07;;;;;;;23.90;10.73;;;;;;;6.59;50.16;96406.47;5108243;28;20096;-70
2022/03/28 02:16:33;;;;;;;17.88;10.55;;;;;;;6.48;50.01;96410.88;5108206;28;20071;-69
2022/03/28 02:18:58;;;;;;;20.83;10.82;;;;;;;6.47;50.46;96413.66;5107889;28;20031;-70
2022/03/28 02:21:24;;;;;;;20.70;10.77;;;;;;;6.43;50.75;96410.44;5109558;28;20020;-69
2022/03/28 02:23:49;;;;;;;18.15;10.13;;;;;;;6.41;50.67;96407.88;5106932;28;20035;-70
2022/03/28 02:26:15;;;;;;;22.05;11.63;;;;;;;6.41;50.98;96404.38;5090312;28;20031;-69
2022/03/28 02:28:40;;;;;;;18.73;11.48;;;;;;;6.33;51.36;96406.81;5108704;28;20196;-72
2022/03/28 02:31:05;;;;;;;18.35;10.52;;;;;;;6.35;51.07;96407.53;5108012;28;20551;-70
2022/03/28 02:33:31;;;;;;;19.48;11.52;;;;;;;6.19;51.45;96406.13;5109069;28;20019;-71
2022/03/28 02:35:56;;;;;;;17.45;10.57;;;;;;;6.16;51.54;96406.38;5107935;28;20023;-69
2022/03/28 02:38:22;;;;;;;20.60;11.95;;;;;;;6.04;52.09;96416.19;5109128;28;20028;-69
2022/03/28 02:40:47;;;;;;;24.40;12.07;;;;;;;5.97;52.15;96407.84;5108001;28;20504;-70
2022/03/28 02:43:12;;;;;;;19.65;12.02;;;;;;;5.98;52.73;96408.69;5108552;28;20020;-70
2022/03/28 02:45:38;;;;;;;21.55;11.35;;;;;;;6.02;52.19;96415.47;5108025;28;20467;-69
2022/03/28 02:48:04;;;;;;;20.33;12.27;;;;;;;5.91;51.94;96414.53;5108475;28;20073;-68
2022/03/28 02:50:31;;;;;;;19.80;10.95;;;;;;;5.91;52.13;96417.19;5108592;28;20023;-70
2022/03/28 02:52:56;;;;;;;23.00;12.02;;;;;;;5.90;51.97;96412.81;5106485;28;20197;-70
2022/03/28 02:55:22;;;;;;;19.35;11.43;;;;;;;5.91;51.54;96417.19;5108601;28;20548;-69
2022/03/28 02:57:47;;;;;;;22.95;11.82;;;;;;;5.87;52.07;96413.06;5107485;28;20111;-69
2022/03/28 03:00:13;;;;;;;20.27;12.20;;;;;;;5.82;52.07;96416.09;5108455;27;20023;-69
2022/03/28 03:02:39;;;;;;;21.58;12.73;;;;;;;5.73;52.62;96416.84;5107639;28;20039;-69
2022/03/28 03:05:06;;;;;;;26.23;13.43;;;;;;;5.75;52.66;96417.56;5107696;28;20049;-68
2022/03/28 03:07:31;;;;;;;23.77;13.07;;;;;;;5.84;52.79;96417.78;5108110;28;20552;-69
2022/03/28 03:09:57;;;;;;;21.48;13.05;;;;;;;5.83;52.24;96422.28;5107324;28;20020;-70
2022/03/28 03:12:22;;;;;;;24.77;13.57;;;;;;;5.72;53.26;96423.13;5107457;28;20027;-70
2022/03/28 03:14:48;;;;;;;23.13;13.90;;;;;;;5.77;53.51;96426.25;5107250;28;20031;-70
2022/03/28 03:17:13;;;;;;;22.92;13.10;;;;;;;5.78;52.50;96424.44;5108019;28;20152;-69
2022/03/28 03:19:40;;;;;;;25.08;13.88;;;;;;;5.82;52.87;96420.56;5107003;28;20035;-69
2022/03/28 03:22:07;;;;;;;25.50;12.88;;;;;;;5.79;52.00;96428.78;5108046;28;20097;-70
2022/03/28 03:24:34;;;;;;;24.27;13.55;;;;;;;5.78;51.96;96427.97;5106193;28;20421;-70
2022/03/28 03:26:59;;;;;;;25.50;13.20;;;;;;;5.76;52.08;96427.25;5107470;28;20456;-69
2022/03/28 03:29:25;;;;;;;24.25;12.10;;;;;;;5.68;51.45;96435.84;5107744;28;20517;-70
2022/03/28 03:31:50;;;;;;;18.58;11.38;;;;;;;5.57;52.02;96434.03;5106896;28;20709;-70
2022/03/28 03:34:16;;;;;;;22.02;12.30;;;;;;;5.55;52.70;96438.63;5107801;28;20024;-70
2022/03/28 03:36:41;;;;;;;22.73;12.30;;;;;;;5.47;52.90;96438.38;5106804;28;20603;-70
2022/03/28 03:39:07;;;;;;;21.08;12.60;;;;;;;5.49;53.49;96435.59;5107895;28;20046;-70
2022/03/28 03:41:32;;;;;;;22.48;13.68;;;;;;;5.49;52.44;96436.44;5106704;28;20487;-70
2022/03/28 03:43:58;;;;;;;25.40;13.10;;;;;;;5.53;52.86;96437.88;5107573;28;20026;-69
2022/03/28 03:46:23;;;;;;;30.45;13.45;;;;;;;5.52;53.13;96430.03;5106994;28;20062;-70
2022/03/28 03:48:48;;;;;;;23.05;12.77;;;;;;;5.52;52.70;96438.88;5106905;28;20028;-70
2022/03/28 03:51:14;;;;;;;21.23;12.32;;;;;;;5.46;53.69;96435.84;5107331;28;20027;-71
2022/03/28 03:53:40;;;;;;;27.20;13.30;;;;;;;5.48;53.31;96434.72;5106079;28;20085;-70
2022/03/28 03:56:05;;;;;;;22.77;12.50;;;;;;;5.37;53.94;96434.75;5107667;28;20027;-70
2022/03/28 03:58:30;;;;;;;22.17;13.57;;;;;;;5.35;54.07;96434.88;5106068;28;20031;-70
2022/03/28 04:00:56;;;;;;;28.08;15.23;;;;;;;5.38;53.69;96433.78;5107195;28;20096;-69
2022/03/28 04:03:21;;;;;;;25.95;15.13;;;;;;;5.30;53.41;96432.53;5106279;28;20073;-70
2022/03/28 04:05:47;;;;;;;28.67;14.30;;;;;;;5.36;53.75;96433.03;5106386;28;20047;-69
2022/03/28 04:08:13;;;;;;;31.30;14.90;;;;;;;5.34;53.73;96435.00;5107129;28;20093;-70
2022/03/28 04:10:38;;;;;;;31.73;14.90;;;;;;;5.29;54.55;96435.31;5106105;28;20032;-69
2022/03/28 04:13:04;;;;;;;33.33;16.00;;;;;;;5.38;53.82;96431.13;5107500;28;20057;-70
2022/03/28 04:15:29;;;;;;;36.00;18.83;;;;;;;5.43;53.87;96426.28;5104456;28;20098;-70
2022/03/28 04:17:55;;;;;;;53.28;23.83;;;;;;;5.53;53.91;96435.22;5106873;28;20099;-69
2022/03/28 04:20:20;;;;;;;45.65;24.48;;;;;;;5.60;54.00;96426.75;5105995;28;20466;-69
2022/03/28 04:22:46;;;;;;;49.78;22.80;;;;;;;5.68;53.58;96432.31;5106005;28;20035;-70
2022/03/28 04:25:11;;;;;;;44.97;21.05;;;;;;;5.67;53.58;96451.94;5104809;28;20058;-70
2022/03/28 04:27:37;;;;;;;34.15;17.73;;;;;;;5.71;53.48;96453.38;5106186;28;20062;-69
2022/03/28 04:30:04;;;;;;;22.90;13.38;;;;;;;5.69;54.38;96458.00;5106810;28;20501;-69
2022/03/28 04:32:29;;;;;;;19.60;10.82;;;;;;;5.76;54.26;96463.66;5105651;28;20019;-70
2022/03/28 04:34:55;;;;;;;21.48;11.15;;;;;;;5.69;53.81;96460.66;5107293;28;20028;-70
2022/03/28 04:37:20;;;;;;;24.15;10.80;;;;;;;5.67;54.69;96467.91;5105858;28;20038;-69
2022/03/28 04:39:46;;;;;;;27.38;12.43;;;;;;;5.67;53.01;96465.25;5106230;28;20031;-69
2022/03/28 04:42:11;;;;;;;25.63;13.50;;;;;;;5.63;53.21;96459.31;5105813;28;20023;-70
2022/03/28 04:44:37;;;;;;;20.65;12.32;;;;;;;5.52;52.99;96462.81;5105948;28;20016;-70
2022/03/28 04:47:02;;;;;;;23.15;12.88;;;;;;;5.41;52.37;96474.31;5106235;28;20227;-70
2022/03/28 04:49:28;;;;;;;25.20;13.15;;;;;;;5.30;51.86;96469.78;5105779;28;20020;-69
2022/03/28 04:51:53;;;;;;;22.55;13.70;;;;;;;5.15;52.24;96468.31;5106188;28;20509;-69
2022/03/28 04:54:19;;;;;;;23.23;14.27;;;;;;;4.95;52.98;96475.97;5105212;28;20038;-69
2022/03/28 04:56:44;;;;;;;30.70;15.55;;;;;;;4.93;53.54;96469.97;5106193;28;20027;-71
2022/03/28 04:59:11;;;;;;;32.42;15.30;;;;;;;5.01;53.24;96470.22;5103851;28;20032;-70
2022/03/28 05:01:37;;;;;;;29.20;15.32;;;;;;;5.05;53.94;96469.03;5105486;28;20406;-70
2022/03/28 05:04:03;;;;;;;30.27;15.55;;;;;;;5.10;52.28;96459.84;5105529;28;20019;-70
2022/03/28 05:06:28;;;;;;;27.45;15.38;;;;;;;5.24;52.21;96458.78;5103881;28;20145;-69
2022/03/28 05:08:54;;;;;;;25.65;14.32;;;;;;;5.39;52.20;96451.41;5105589;28;20032;-69
2022/03/28 05:11:22;;;;;;;29.50;15.45;;;;;;;5.43;52.63;96459.03;5105007;28;20036;-70
2022/03/28 05:13:49;;;;;;;32.83;18.20;;;;;;;5.54;50.97;96466.22;5106094;28;20031;-70
2022/03/28 05:16:14;;;;;;;28.75;17.90;;;;;;;5.73;51.18;96459.44;5104910;28;20460;-71
2022/03/28 05:18:39;;;;;;;37.38;19.73;;;;;;;5.88;50.43;96465.38;5105344;28;20035;-70
2022/03/28 05:21:05;;;;;;;35.97;19.83;;;;;;;6.01;49.84;96464.38;5105135;28;20015;-70
2022/03/28 05:23:30;;;;;;;41.72;21.05;;;;;;;6.16;49.34;96456.97;5105402;28;20032;-69
2022/03/28 05:25:56;;;;;;;48.35;22.45;;;;;;;6.24;48.79;96461.72;5105455;28;20024;-70
2022/03/28 05:28:21;;;;;;;41.85;22.55;;;;;;;6.34;49.32;96461.78;5105019;28;20047;-69
2022/03/28 05:30:46;;;;;;;44.63;21.42;;;;;;;6.55;48.89;96467.19;5104009;28;20453;-70
2022/03/28 05:33:12;;;;;;;39.65;20.75;;;;;;;6.48;48.92;96463.34;5104219;28;20031;-69
2022/03/28 05:35:38;;;;;;;43.25;21.73;;;;;;;6.70;48.70;96461.56;5105279;28;20028;-70
2022/03/28 05:38:03;;;;;;;43.92;21.60;;;;;;;6.99;48.09;96455.63;5103082;28;20023;-70
2022/03/28 05:40:29;;;;;;;37.22;21.27;;;;;;;7.21;47.38;96457.31;5105304;28;20023;-70
2022/03/28 05:42:54;;;;;;;41.97;21.38;;;;;;;7.36;47.59;96456.97;5104660;28;20032;-69
2022/03/28 05:45:20;;;;;;;41.30;21.58;;;;;;;7.48;47.45;96455.91;5103733;28;20023;-69
2022/03/28 05:47:45;;;;;;;50.38;22.23;;;;;;;7.72;46.58;96454.75;5087143;28;20028;-69
2022/03/28 05:50:10;;;;;;;40.28;21.98;;;;;;;7.98;46.53;96462.31;5104493;28;20035;-70
2022/03/28 05:52:37;;;;;;;35.72;20.88;;;;;;;8.19;45.70;96465.91;5105734;28;20028;-69
2022/03/28 05:55:03;;;;;;;36.75;20.67;;;;;;;8.43;45.58;96468.19;5104163;28;20055;-69
2022/03/28 05:57:28;;;;;;;43.47;21.45;;;;;;;8.70;44.49;96464.06;5105628;28;20421;-70
2022/03/28 05:59:53;;;;;;;39.60;23.58;;;;;;;8.88;44.13;96468.72;5103099;28;20482;-70
2022/03/28 06:02:19;;;;;;;48.95;25.50;;;;;;;9.10;43.53;96467.56;5105013;28;20024;-69
2022/03/28 06:04:44;;;;;;;40.08;24.33;;;;;;;9.27;43.22;96471.34;5104906;28;20057;-70
2022/03/28 06:07:10;;;;;;;39.83;22.25;;;;;;;9.50;42.51;96462.16;5104371;28;20537;-70
2022/03/28 06:09:36;;;;;;;39.03;23.27;;;;;;;9.74;41.96;96463.47;5105426;28;20020;-71
2022/03/28 06:12:01;;;;;;;43.45;22.17;;;;;;;9.89;42.26;96463.88;5104242;28;20032;-70
2022/03/28 06:14:26;;;;;;;36.20;20.63;;;;;;;10.15;41.38;96463.19;5105510;28;20030;-71
2022/03/28 06:16:52;;;;;;;33.55;19.85;;;;;;;10.46;40.78;96467.41;5104377;28;20053;-71
2022/03/28 06:19:17;;;;;;;31.90;19.13;;;;;;;10.56;40.49;96470.06;5103416;28;20032;-71
2022/03/28 06:21:43;;;;;;;36.05;20.02;;;;;;;10.72;40.66;96462.16;5104402;28;20046;-70
2022/03/28 06:24:09;;;;;;;37.63;20.98;;;;;;;10.82;40.28;96469.28;5104200;28;20024;-71
2022/03/28 06:26:35;;;;;;;36.85;21.15;;;;;;;10.96;40.25;96465.22;5105176;28;20172;-70
2022/03/28 06:29:00;;;;;;;37.20;21.48;;;;;;;11.04;40.30;96459.09;5104541;28;20059;-71
2022/03/28 06:31:26;;;;;;;40.00;22.88;;;;;;;11.22;41.24;96467.13;5105475;28;20394;-71
2022/03/28 06:33:51;;;;;;;35.17;22.35;;;;;;;11.37;40.36;96462.03;5104044;28;20019;-70
2022/03/28 06:36:17;;;;;;;45.70;24.08;;;;;;;11.48;40.04;96455.56;5104748;28;20031;-69
2022/03/28 06:38:42;;;;;;;37.80;23.02;;;;;;;11.49;39.81;96452.72;5104051;28;20565;-70
2022/03/28 06:41:09;;;;;;;44.97;23.02;;;;;;;11.77;39.82;96459.75;5104448;28;20493;-69
2022/03/28 06:43:34;;;;;;;35.17;21.60;;;;;;;11.96;39.47;96458.69;5104708;28;20023;-70
2022/03/28 06:45:59;;;;;;;36.55;22.67;;;;;;;12.16;38.84;96455.78;5106403;28;20078;-70
2022/03/28 06:48:25;;;;;;;32.97;21.13;;;;;;;12.48;38.58;96454.22;5108629;28;20024;-70
2022/03/28 06:50:50;;;;;;;36.28;20.45;;;;;;;12.62;38.27;96462.69;5107700;28;20390;-70
2022/03/28 06:53:16;;;;;;;30.95;19.25;;;;;;;12.70;38.16;96465.38;5108587;28;20016;-70
2022/03/28 06:55:41;;;;;;;30.05;19.70;;;;;;;12.76;38.10;96460.34;5107243;28;20027;-70
2022/03/28 06:58:07;;;;;;;34.08;20.02;;;;;;;12.98;38.14;96462.38;5108038;28;20027;-70
2022/03/28 07:00:33;;;;;;;29.33;17.40;;;;;;;13.03;38.81;96458.34;5107630;28;20031;-71
2022/03/28 07:02:58;;;;;;;23.83;14.40;;;;;;;12.93;38.48;96458.53;5108144;28;20034;-71
2022/03/28 07:05:24;;;;;;;27.30;15.95;;;;;;;13.01;38.27;96455.00;5107711;28;20023;-70
2022/03/28 07:07:50;;;;;;;26.58;17.02;;;;;;;13.23;38.07;96465.09;5107760;28;20035;-70
2022/03/28 07:10:19;;;;;;;25.33;15.95;;;;;;;13.33;37.79;96464.91;5106464;28;20031;-70
2022/03/28 07:12:45;;;;;;;23.95;17.13;;;;;;;13.43;37.67;96463.94;5107399;28;20090;-70
2022/03/28 07:15:11;;;;;;;33.20;19.33;;;;;;;13.61;37.53;96462.94;5107842;28;20825;-71
2022/03/28 07:17:54;;;;;;;30.30;19.02;;;;;;;13.79;37.27;96460.84;5107200;28;20027;-70
2022/03/28 07:20:24;;;;;;;28.63;17.63;;;;;;;14.04;36.69;96454.56;5107366;28;20024;-69
2022/03/28 07:22:50;;;;;;;27.00;18.67;;;;;;;14.02;36.49;96456.59;5107868;28;20028;-69
2022/03/28 07:25:15;;;;;;;23.38;15.93;;;;;;;14.12;36.42;96462.63;5106709;28;20047;-70
2022/03/28 07:27:41;;;;;;;23.73;16.33;;;;;;;14.34;36.21;96462.88;5108126;28;20031;-71
2022/03/28 07:30:07;;;;;;;21.90;16.13;;;;;;;14.55;36.04;96462.25;5106896;28;20455;-69
2022/03/28 07:32:33;;;;;;;34.88;16.90;;;;;;;14.41;36.36;96463.84;5107474;28;20143;-70
2022/03/28 07:34:59;;;;;;;22.75;15.23;;;;;;;14.57;35.85;96464.78;5106814;28;20340;-71
2022/03/28 07:37:24;;;;;;;24.27;16.05;;;;;;;14.59;35.64;96451.94;5107110;28;20499;-70
2022/03/28 07:39:50;;;;;;;25.55;15.68;;;;;;;14.69;35.76;96466.06;5107228;28;20035;-70
2022/03/28 07:42:15;;;;;;;20.67;14.85;;;;;;;14.81;35.90;96454.88;5106889;28;20474;-70
2022/03/28 07:44:42;;;;;;;22.27;15.88;;;;;;;14.65;35.90;96456.66;5107553;28;20039;-70
2022/03/28 07:47:08;;;;;;;24.38;14.38;;;;;;;14.63;35.85;96460.53;5106558;28;20042;-70
2022/03/28 07:49:35;;;;;;;22.30;14.40;;;;;;;14.70;36.02;96461.50;5107466;28;20024;-69
2022/03/28 07:52:01;;;;;;;21.23;13.13;;;;;;;14.74;35.95;96456.56;5106342;28;20517;-69
2022/03/28 07:54:27;;;;;;;20.70;13.50;;;;;;;14.86;35.73;96452.50;5106852;28;20036;-70
2022/03/28 07:56:52;;;;;;;26.15;14.25;;;;;;;15.00;36.06;96450.03;5105884;28;20065;-70
2022/03/28 07:59:18;;;;;;;27.60;14.25;;;;;;;15.12;35.74;96451.28;5106914;28;20101;-69
2022/03/28 08:01:43;;;;;;;29.60;13.57;;;;;;;15.29;35.40;96446.59;5105521;28;20051;-69
2022/03/28 08:04:08;;;;;;;21.48;13.45;;;;;;;15.31;35.30;96443.72;5106328;28;20538;-69
2022/03/28 08:06:34;;;;;;;18.70;12.60;;;;;;;15.44;35.19;96437.69;5106994;28;20058;-71
2022/03/28 08:08:59;;;;;;;20.27;11.80;;;;;;;15.64;35.02;96432.59;5106073;28;20024;-70
2022/03/28 08:11:25;;;;;;;21.65;11.20;;;;;;;15.72;35.50;96425.44;5106596;28;20043;-70
2022/03/28 08:13:50;;;;;;;17.05;10.88;;;;;;;15.84;34.90;96431.19;5106076;28;20028;-71
2022/03/28 08:16:16;;;;;;;17.05;10.98;;;;;;;15.92;34.96;96423.00;5105426;28;20024;-70
2022/03/28 08:18:41;;;;;;;19.98;11.45;;;;;;;15.83;35.14;96430.34;5106113;28;20027;-71
2022/03/28 08:21:08;;;;;;;20.95;11.52;;;;;;;15.92;35.20;96418.44;5106288;28;20028;-71
2022/03/28 08:23:35;;;;;;;17.15;11.35;;;;;;;16.14;34.91;96415.84;5105418;28;20075;-70
2022/03/28 08:26:00;;;;;;;14.25;9.75;;;;;;;16.27;34.34;96414.31;5105680;28;20436;-70
2022/03/28 08:28:26;;;;;;;16.48;10.63;;;;;;;16.30;34.12;96406.66;5106859;28;20477;-69
2022/03/28 08:30:52;;;;;;;17.25;10.45;;;;;;;16.38;34.08;96400.31;5105285;28;20023;-69
2022/03/28 08:33:17;;;;;;;17.55;10.77;;;;;;;16.42;34.02;96398.91;5106497;28;20526;-70
2022/03/28 08:35:43;;;;;;;17.65;10.98;;;;;;;16.31;34.68;96397.50;5105492;28;20547;-70
2022/03/28 08:38:08;;;;;;;18.33;10.43;;;;;;;16.35;34.61;96394.41;5106221;28;20032;-71
2022/03/28 08:40:34;;;;;;;19.55;10.77;;;;;;;16.33;34.92;96391.09;5106088;28;20034;-70
2022/03/28 08:42:59;;;;;;;16.92;10.07;;;;;;;16.30;35.19;96397.69;5106167;28;20028;-70
2022/03/28 08:45:25;;;;;;;17.98;10.05;;;;;;;16.35;35.02;96387.16;5105571;28;20035;-70
2022/03/28 08:47:51;;;;;;;15.48;10.60;;;;;;;16.16;35.61;96385.88;5104149;28;20443;-70
2022/03/28 08:50:17;;;;;;;15.82;10.52;;;;;;;16.20;35.43;96376.38;5105374;28;20058;-72
2022/03/28 08:52:42;;;;;;;16.77;10.68;;;;;;;16.20;35.77;96370.97;5105384;28;20088;-71
2022/03/28 08:55:11;;;;;;;14.45;9.82;;;;;;;16.25;34.99;96371.19;5106203;28;20080;-71
2022/03/28 08:57:37;;;;;;;14.43;9.48;;;;;;;16.32;35.32;96360.47;5105599;28;20050;-71
2022/03/28 09:00:12;;;;;;;13.35;9.38;;;;;;;16.47;34.77;96354.16;5105805;28;20525;-70
2022/03/28 09:02:41;;;;;;;15.40;9.38;;;;;;;16.62;34.23;96357.66;5105291;28;20030;-70
2022/03/28 09:05:17;;;;;;;15.73;9.48;;;;;;;16.71;34.48;96355.66;5105620;28;20163;-70
2022/03/28 09:07:43;;;;;;;19.10;9.43;;;;;;;16.84;34.22;96346.84;5105743;28;20055;-70
2022/03/28 09:10:12;;;;;;;14.55;9.10;;;;;;;16.91;34.02;96353.13;5105340;28;20062;-70
2022/03/28 09:12:59;;;;;;;16.48;8.57;;;;;;;16.98;33.80;96338.81;5105756;28;20045;-70
2022/03/28 09:15:24;;;;;;;13.13;8.98;;;;;;;17.02;33.30;96340.09;5106205;28;20426;-71
2022/03/28 09:17:56;;;;;;;18.40;9.05;;;;;;;16.74;33.95;96338.19;5104829;28;20023;-69
2022/03/28 09:20:22;;;;;;;20.30;8.63;;;;;;;16.66;34.21;96334.59;5106170;28;20178;-70
2022/03/28 09:22:49;;;;;;;13.70;9.02;;;;;;;16.71;34.07;96333.16;5104682;28;20047;-70
2022/03/28 09:25:14;;;;;;;21.42;10.07;;;;;;;16.77;34.29;96326.97;5105704;28;20390;-70
2022/03/28 09:27:41;;;;;;;16.08;10.15;;;;;;;16.59;34.85;96324.72;5105099;28;20494;-69
2022/03/28 09:30:11;;;;;;;24.15;9.50;;;;;;;16.52;34.33;96317.34;5105102;28;20490;-70
2022/03/28 09:32:38;;;;;;;16.80;10.35;;;;;;;16.49;34.36;96316.91;5105785;28;20096;-72
2022/03/28 09:35:04;;;;;;;25.35;10.13;;;;;;;16.47;34.23;96310.84;5104700;28;20031;-69
2022/03/28 09:37:30;;;;;;;22.02;9.80;;;;;;;16.44;34.43;96309.38;5106218;28;20540;-70
2022/03/28 09:39:56;;;;;;;17.70;10.10;;;;;;;16.43;34.80;96307.69;5104257;28;20028;-70
2022/03/28 09:42:21;;;;;;;18.83;9.32;;;;;;;16.44;34.59;96309.38;5104364;28;20039;-70
2022/03/28 09:44:49;;;;;;;19.35;9.50;;;;;;;16.60;34.56;96300.16;5104878;28;20020;-71
2022/03/28 09:47:19;;;;;;;17.00;10.07;;;;;;;16.78;34.79;96293.44;5105239;28;20038;-71
2022/03/28 09:49:45;;;;;;;16.80;10.18;;;;;;;16.89;33.66;96283.94;5105356;28;20034;-71
2022/03/28 09:52:22;;;;;;;16.75;9.77;;;;;;;16.93;33.67;96277.94;5104817;28;20066;-71
2022/03/28 09:54:52;;;;;;;16.88;10.77;;;;;;;16.87;33.60;96273.28;5105900;28;20047;-70
2022/03/28 09:57:31;;;;;;;22.02;10.73;;;;;;;16.91;33.82;96269.16;5104417;28;20024;-70
2022/03/28 10:00:29;;;;;;;17.90;11.32;;;;;;;17.04;34.02;96260.28;5105147;28;20402;-71
2022/03/28 10:02:54;;;;;;;19.90;11.07;;;;;;;17.04;34.42;96262.13;5059953;28;20667;-70
2022/03/28 10:05:20;;;;;;;19.90;11.25;;;;;;;17.14;33.85;96257.25;5086213;28;20027;-70
2022/03/28 10:07:46;;;;;;;17.10;11.40;;;;;;;17.27;33.39;96255.66;5087189;28;20043;-70
2022/03/28 10:10:11;;;;;;;18.45;10.93;;;;;;;17.31;33.16;96243.41;5104134;28;20043;-71
2022/03/28 10:12:37;;;;;;;19.00;10.55;;;;;;;17.35;32.38;96246.53;5105593;28;20483;-70
2022/03/28 10:15:03;;;;;;;17.23;10.48;;;;;;;17.33;32.66;96244.00;5102986;28;20062;-70
2022/03/28 10:17:29;;;;;;;24.92;11.05;;;;;;;17.22;33.24;96241.88;5105250;28;20089;-70
2022/03/28 10:19:55;;;;;;;22.48;12.10;;;;;;;17.15;33.08;96231.00;5105249;28;20493;-71
2022/03/28 10:22:32;;;;;;;20.15;11.60;;;;;;;17.23;33.87;96220.00;5107117;28;20111;-71
2022/03/28 10:25:08;;;;;;;18.08;10.73;;;;;;;17.33;32.45;96216.09;5091245;28;20031;-70
2022/03/28 10:27:33;;;;;;;20.13;11.63;;;;;;;17.23;33.08;96205.59;5090653;28;20024;-69
2022/03/28 10:30:30;;;;;;;15.70;10.77;;;;;;;17.06;32.64;96200.47;5107991;28;20028;-70
2022/03/28 10:33:19;;;;;;;24.30;11.50;;;;;;;17.06;32.35;96195.03;5108704;28;20103;-71
2022/03/28 10:36:06;;;;;;;19.75;11.23;;;;;;;17.11;32.06;96189.91;5108225;27;20034;-71
2022/03/28 10:38:32;;;;;;;16.88;10.68;;;;;;;17.14;32.58;96189.50;5109141;28;20097;-69
2022/03/28 10:41:01;;;;;;;19.92;10.68;;;;;;;17.30;32.26;96179.34;5108126;28;20036;-71
2022/03/28 10:43:32;;;;;;;22.98;11.23;;;;;;;17.50;32.11;96173.19;5108376;28;20055;-70
2022/03/28 10:46:01;;;;;;;27.52;10.38;;;;;;;17.42;32.56;96175.03;5108594;27;20043;-70
2022/03/28 10:48:46;;;;;;;18.13;10.63;;;;;;;17.52;32.24;96168.41;5107754;28;20024;-70
2022/03/28 10:51:15;;;;;;;24.33;10.43;;;;;;;17.57;31.80;96157.78;5108728;28;20046;-71
2022/03/28 10:53:46;;;;;;;21.48;11.65;;;;;;;17.51;31.96;96153.16;5108025;28;20027;-69
2022/03/28 10:56:12;;;;;;;18.48;10.95;;;;;;;17.49;31.99;96150.63;5108287;28;20027;-70
2022/03/28 10:58:44;;;;;;;20.75;10.35;;;;;;;17.57;32.25;96149.66;5108275;28;20486;-70
2022/03/28 11:01:12;;;;;;;20.52;11.10;;;;;;;17.59;31.18;96152.16;5107738;28;20019;-70
2022/03/28 11:03:48;;;;;;;22.67;11.20;;;;;;;17.63;31.48;96140.69;5108701;28;20034;-71
2022/03/28 11:06:15;;;;;;;22.88;11.18;;;;;;;17.63;31.04;96146.13;5107126;28;20044;-70
2022/03/28 11:08:46;;;;;;;19.35;11.35;;;;;;;17.62;30.52;96133.56;5108502;28;20031;-70
2022/03/28 11:11:25;;;;;;;16.08;11.10;;;;;;;17.72;30.73;96122.34;5107283;28;20035;-70
2022/03/28 11:14:04;;;;;;;25.65;11.20;;;;;;;17.73;30.25;96128.59;5107692;28;20495;-69
2022/03/28 11:16:43;;;;;;;19.77;11.00;;;;;;;17.81;31.00;96119.44;5108026;28;20594;-70
2022/03/28 11:19:31;;;;;;;20.02;10.75;;;;;;;17.89;30.90;96122.78;5107151;28;20030;-71
2022/03/28 11:22:03;;;;;;;23.13;11.88;;;;;;;17.97;30.19;96118.22;5108015;28;20516;-70